createdAt,value
2023-03-08T00:00:19.963Z,94229
2023-03-08T00:01:29.665Z,94232
2023-03-08T00:02:38.337Z,94228
2023-03-08T00:03:48.046Z,94223
2023-03-08T00:04:56.697Z,94231
2023-03-08T00:06:05.334Z,94226
2023-03-08T00:07:15.010Z,94229
2023-03-08T00:08:23.722Z,94226
2023-03-08T00:09:32.333Z,94224
2023-03-08T00:10:42.041Z,94233
2023-03-08T00:11:50.733Z,94237
2023-03-08T00:13:00.380Z,94239
2023-03-08T00:14:09.092Z,94226
2023-03-08T00:15:17.760Z,94241
2023-03-08T00:16:26.541Z,94237
2023-03-08T00:17:35.101Z,94247
2023-03-08T00:18:44.771Z,94246
2023-03-08T00:19:54.452Z,94238
2023-03-08T00:21:02.107Z,94243
2023-03-08T00:22:11.769Z,94244
2023-03-08T00:23:21.537Z,94245
2023-03-08T00:24:30.161Z,94253
2023-03-08T00:25:39.828Z,94255
2023-03-08T00:26:49.521Z,94243
2023-03-08T00:27:59.202Z,94260
2023-03-08T00:29:08.919Z,94242
2023-03-08T00:30:17.614Z,94242
2023-03-08T00:31:27.343Z,94243
2023-03-08T00:32:37.060Z,94244
2023-03-08T00:33:44.677Z,94247
2023-03-08T00:34:54.428Z,94244
2023-03-08T00:36:03.212Z,94244
2023-03-08T00:37:11.912Z,94235
2023-03-08T00:38:21.621Z,94241
2023-03-08T00:39:31.333Z,94241
2023-03-08T00:40:40.969Z,94240
2023-03-08T00:41:50.653Z,94243
2023-03-08T00:42:58.311Z,94246
2023-03-08T00:44:07.001Z,94233
2023-03-08T00:45:15.682Z,94236
2023-03-08T00:46:24.380Z,94238
2023-03-08T00:47:34.029Z,94237
2023-03-08T00:48:44.666Z,94242
2023-03-08T00:49:54.419Z,94241
2023-03-08T00:51:04.084Z,94247
2023-03-08T00:52:12.784Z,94236
2023-03-08T00:53:22.458Z,94238
2023-03-08T00:54:31.112Z,94237
2023-03-08T00:55:40.875Z,94236
2023-03-08T00:56:50.507Z,94238
2023-03-08T00:57:57.155Z,94235
2023-03-08T00:59:06.811Z,94234
2023-03-08T01:00:16.533Z,94235
2023-03-08T01:01:26.206Z,94232
2023-03-08T01:02:35.865Z,94231
2023-03-08T01:03:45.569Z,94232
2023-03-08T01:04:55.283Z,94238
2023-03-08T01:06:04.984Z,94242
2023-03-08T01:07:13.622Z,94233
2023-03-08T01:08:22.325Z,94237
2023-03-08T01:09:31.982Z,94243
2023-03-08T01:10:40.673Z,94233
2023-03-08T01:11:49.351Z,94234
2023-03-08T01:12:58.995Z,94243
2023-03-08T01:14:08.649Z,94240
2023-03-08T01:15:18.345Z,94227
2023-03-08T01:16:26.051Z,94226
2023-03-08T01:17:35.736Z,94225
2023-03-08T01:18:45.430Z,94226
2023-03-08T01:19:54.057Z,94222
2023-03-08T01:21:02.742Z,94230
2023-03-08T01:22:12.409Z,94222
2023-03-08T01:23:21.061Z,94216
2023-03-08T01:24:30.736Z,94212
2023-03-08T01:25:38.446Z,94211
2023-03-08T01:26:48.129Z,94215
2023-03-08T01:27:57.827Z,94218
2023-03-08T01:29:05.442Z,94217
2023-03-08T01:30:14.147Z,94213
2023-03-08T01:31:22.850Z,94223
2023-03-08T01:32:31.545Z,94225
2023-03-08T01:33:41.188Z,94229
2023-03-08T01:34:47.820Z,94222
2023-03-08T01:35:57.600Z,94224
2023-03-08T01:37:07.213Z,94221
2023-03-08T01:38:15.866Z,94216
2023-03-08T01:39:24.524Z,94222
2023-03-08T01:40:33.190Z,94219
2023-03-08T01:41:42.867Z,94222
2023-03-08T01:42:52.558Z,94224
2023-03-08T01:44:00.250Z,94224
2023-03-08T01:45:09.926Z,94226
2023-03-08T01:46:19.608Z,94229
2023-03-08T01:47:27.270Z,94232
2023-03-08T01:48:36.942Z,94230
2023-03-08T01:49:45.609Z,94227
2023-03-08T01:50:55.306Z,94236
2023-03-08T01:52:04.990Z,94227
2023-03-08T01:53:12.629Z,94227
2023-03-08T01:54:22.276Z,94223
2023-03-08T01:55:31.968Z,94218
2023-03-08T01:56:39.668Z,94213
2023-03-08T01:57:47.347Z,94222
2023-03-08T01:58:57.013Z,94214
2023-03-08T02:00:05.712Z,94209
2023-03-08T02:01:15.391Z,94211
2023-03-08T02:02:24.620Z,94206
2023-03-08T02:03:32.685Z,94207
2023-03-08T02:04:42.385Z,94197
2023-03-08T02:05:51.000Z,94197
2023-03-08T02:06:59.780Z,94196
2023-03-08T02:08:08.440Z,94197
2023-03-08T02:09:17.101Z,94193
2023-03-08T02:10:26.769Z,94197
2023-03-08T02:11:35.530Z,94203
2023-03-08T02:12:44.192Z,94213
2023-03-08T02:13:52.861Z,94210
2023-03-08T02:15:01.529Z,94201
2023-03-08T02:16:11.315Z,94192
2023-03-08T02:17:20.939Z,94191
2023-03-08T02:18:28.586Z,94193
2023-03-08T02:19:37.263Z,94191
2023-03-08T02:20:46.927Z,94195
2023-03-08T02:21:55.948Z,94190
2023-03-08T02:23:05.627Z,94200
2023-03-08T02:24:14.296Z,94192
2023-03-08T02:25:23.970Z,94189
2023-03-08T02:26:33.664Z,94189
2023-03-08T02:27:42.335Z,94186
2023-03-08T02:28:51.002Z,94179
2023-03-08T02:30:00.744Z,94184
2023-03-08T02:31:09.384Z,94183
2023-03-08T02:32:18.126Z,94187
2023-03-08T02:33:27.759Z,94181
2023-03-08T02:34:37.450Z,94181
2023-03-08T02:35:47.151Z,94181
2023-03-08T02:36:57.005Z,94185
2023-03-08T02:38:05.732Z,94178
2023-03-08T02:39:14.426Z,94176
2023-03-08T02:40:23.088Z,94178
2023-03-08T02:41:31.800Z,94173
2023-03-08T02:42:39.469Z,94173
2023-03-08T02:43:49.146Z,94169
2023-03-08T02:44:58.818Z,94166
2023-03-08T02:46:07.489Z,94160
2023-03-08T02:47:17.187Z,94156
2023-03-08T02:48:26.918Z,94160
2023-03-08T02:49:34.601Z,94161
2023-03-08T02:50:43.267Z,94162
2023-03-08T02:51:52.962Z,94160
2023-03-08T02:53:01.625Z,94158
2023-03-08T02:54:11.307Z,94160
2023-03-08T02:55:20.957Z,94161
2023-03-08T02:56:29.652Z,94162
2023-03-08T02:57:39.332Z,94159
2023-03-08T02:58:47.003Z,94165
2023-03-08T02:59:56.691Z,94163
2023-03-08T03:01:05.521Z,94165
2023-03-08T03:02:14.115Z,94166
2023-03-08T03:03:23.782Z,94164
2023-03-08T03:04:32.500Z,94164
2023-03-08T03:05:42.145Z,94167
2023-03-08T03:06:51.841Z,94162
2023-03-08T03:08:00.519Z,94164
2023-03-08T03:09:10.188Z,94162
2023-03-08T03:10:19.878Z,94165
2023-03-08T03:11:28.538Z,94166
2023-03-08T03:12:38.232Z,94162
2023-03-08T03:13:54.269Z,94162
2023-03-08T03:15:12.312Z,94164
2023-03-08T03:16:19.982Z,94168
2023-03-08T03:17:28.647Z,94167
2023-03-08T03:18:38.321Z,94166
2023-03-08T03:19:48.120Z,94166
2023-03-08T03:20:57.698Z,94161
2023-03-08T03:22:06.398Z,94162
2023-03-08T03:23:15.104Z,94162
2023-03-08T03:24:24.788Z,94161
2023-03-08T03:25:33.525Z,94160
2023-03-08T03:26:42.224Z,94160
2023-03-08T03:27:50.932Z,94158
2023-03-08T03:28:59.612Z,94153
2023-03-08T03:30:09.278Z,94154
2023-03-08T03:31:18.974Z,94154
2023-03-08T03:35:44.680Z,94149
2023-03-08T03:36:54.296Z,94145
2023-03-08T03:38:03.978Z,94144
2023-03-08T03:39:13.722Z,94146
2023-03-08T03:40:23.413Z,94141
2023-03-08T03:41:32.070Z,94143
2023-03-08T03:42:39.745Z,94141
2023-03-08T03:43:49.449Z,94145
2023-03-08T03:44:58.145Z,94140
2023-03-08T03:46:06.892Z,94142
2023-03-08T03:47:16.561Z,94137
2023-03-08T03:48:26.243Z,94134
2023-03-08T03:49:35.926Z,94132
2023-03-08T03:50:44.614Z,94134
2023-03-08T03:51:53.308Z,94130
2023-03-08T03:53:02.979Z,94129
2023-03-08T03:54:11.655Z,94127
2023-03-08T03:55:21.328Z,94127
2023-03-08T03:56:31.020Z,94124
2023-03-08T03:57:38.699Z,94122
2023-03-08T03:58:47.367Z,94123
2023-03-08T03:59:56.063Z,94128
2023-03-08T04:01:04.731Z,94126
2023-03-08T04:02:14.434Z,94131
2023-03-08T04:03:22.339Z,94128
2023-03-08T04:04:30.783Z,94133
2023-03-08T04:05:40.463Z,94136
2023-03-08T04:06:49.142Z,94134
2023-03-08T04:07:57.884Z,94130
2023-03-08T04:09:07.532Z,94128
2023-03-08T04:10:17.266Z,94128
2023-03-08T04:11:26.934Z,94126
2023-03-08T04:12:34.609Z,94123
2023-03-08T04:13:43.303Z,94118
2023-03-08T04:14:53.026Z,94120
2023-03-08T04:16:02.688Z,94119
2023-03-08T04:17:12.362Z,94122
2023-03-08T04:18:22.065Z,94123
2023-03-08T04:19:31.729Z,94121
2023-03-08T04:20:40.393Z,94120
2023-03-08T04:21:50.072Z,94123
2023-03-08T04:22:59.796Z,94119
2023-03-08T04:24:08.438Z,94122
2023-03-08T04:25:18.139Z,94116
2023-03-08T04:26:27.857Z,94116
2023-03-08T04:27:36.537Z,94112
2023-03-08T04:28:45.235Z,94119
2023-03-08T04:29:54.932Z,94108
2023-03-08T04:31:04.672Z,94102
2023-03-08T04:32:14.296Z,94100
2023-03-08T04:33:21.946Z,94104
2023-03-08T04:34:31.624Z,94105
2023-03-08T04:35:41.334Z,94103
2023-03-08T04:36:48.977Z,94101
2023-03-08T04:37:57.651Z,94094
2023-03-08T04:39:07.392Z,94100
2023-03-08T04:40:17.042Z,94094
2023-03-08T04:41:27.715Z,94095
2023-03-08T04:42:35.393Z,94091
2023-03-08T04:43:45.089Z,94092
2023-03-08T04:44:54.784Z,94093
2023-03-08T04:46:02.469Z,94088
2023-03-08T04:47:11.155Z,94088
2023-03-08T04:48:20.857Z,94093
2023-03-08T04:49:30.521Z,94091
2023-03-08T04:50:40.228Z,94095
2023-03-08T04:51:48.911Z,94089
2023-03-08T04:52:57.562Z,94086
2023-03-08T04:54:07.261Z,94080
2023-03-08T04:55:15.984Z,94084
2023-03-08T04:56:24.652Z,94076
2023-03-08T04:57:33.344Z,94074
2023-03-08T04:58:43.035Z,94068
2023-03-08T04:59:52.712Z,94062
2023-03-08T05:01:02.378Z,94064
2023-03-08T05:02:11.089Z,94055
2023-03-08T05:03:20.739Z,94054
2023-03-08T05:04:29.464Z,94060
2023-03-08T05:05:38.119Z,94054
2023-03-08T05:06:46.792Z,94055
2023-03-08T05:07:55.502Z,94056
2023-03-08T05:09:05.233Z,94049
2023-03-08T05:10:12.907Z,94051
2023-03-08T05:11:21.605Z,94045
2023-03-08T05:12:31.272Z,94041
2023-03-08T05:13:39.962Z,94042
2023-03-08T05:14:48.682Z,94046
2023-03-08T05:15:57.415Z,94044
2023-03-08T05:17:06.016Z,94041
2023-03-08T05:18:15.734Z,94040
2023-03-08T05:19:23.430Z,94033
2023-03-08T05:20:33.089Z,94031
2023-03-08T05:21:42.833Z,94034
2023-03-08T05:22:58.781Z,94029
2023-03-08T05:24:01.175Z,94022
2023-03-08T05:25:09.879Z,94025
2023-03-08T05:26:19.565Z,94020
2023-03-08T05:27:29.282Z,94016
2023-03-08T05:28:38.972Z,94020
2023-03-08T05:29:48.631Z,94018
2023-03-08T05:30:58.346Z,94012
2023-03-08T05:32:07.106Z,94021
2023-03-08T05:33:15.690Z,94019
2023-03-08T05:34:24.386Z,94020
2023-03-08T05:35:33.089Z,94019
2023-03-08T05:36:42.813Z,94016
2023-03-08T05:37:50.453Z,94023
2023-03-08T05:38:59.112Z,94024
2023-03-08T05:40:08.837Z,94025
2023-03-08T05:41:16.477Z,94021
2023-03-08T05:42:26.195Z,94023
2023-03-08T05:43:35.900Z,94015
2023-03-08T05:44:45.607Z,94014
2023-03-08T05:45:55.371Z,94010
2023-03-08T05:47:04.084Z,94003
2023-03-08T05:48:14.742Z,93999
2023-03-08T05:49:24.411Z,94003
2023-03-08T05:50:34.100Z,94000
2023-03-08T05:51:42.774Z,94002
2023-03-08T05:52:52.439Z,94001
2023-03-08T05:54:02.092Z,94002
2023-03-08T05:55:10.777Z,94002
2023-03-08T05:56:19.502Z,93997
2023-03-08T05:57:29.121Z,93995
2023-03-08T05:58:37.767Z,93993
2023-03-08T05:59:48.468Z,93992
2023-03-08T06:00:58.122Z,93991
2023-03-08T06:02:06.806Z,93989
2023-03-08T06:03:15.454Z,93997
2023-03-08T06:04:25.141Z,93998
2023-03-08T06:05:33.859Z,93995
2023-03-08T06:06:42.514Z,93997
2023-03-08T06:07:52.220Z,93999
2023-03-08T06:08:59.879Z,93999
2023-03-08T06:10:08.569Z,93992
2023-03-08T06:11:17.295Z,93990
2023-03-08T06:12:25.968Z,93989
2023-03-08T06:13:35.662Z,93990
2023-03-08T06:14:43.349Z,93991
2023-03-08T06:15:53.103Z,93998
2023-03-08T06:17:02.801Z,93999
2023-03-08T06:18:11.481Z,93992
2023-03-08T06:19:21.099Z,93991
2023-03-08T06:20:28.776Z,93990
2023-03-08T06:21:37.447Z,93991
2023-03-08T06:22:46.107Z,93987
2023-03-08T06:23:55.776Z,93990
2023-03-08T06:25:05.520Z,93992
2023-03-08T06:26:13.180Z,93994
2023-03-08T06:27:22.837Z,93996
2023-03-08T06:28:32.502Z,93991
2023-03-08T06:29:41.178Z,93993
2023-03-08T06:30:50.936Z,93995
2023-03-08T06:32:01.965Z,93996
2023-03-08T06:33:08.195Z,93996
2023-03-08T06:34:17.884Z,93997
2023-03-08T06:35:27.628Z,94003
2023-03-08T06:36:36.265Z,93997
2023-03-08T06:37:45.944Z,93997
2023-03-08T06:38:54.636Z,94000
2023-03-08T06:40:03.288Z,94000
2023-03-08T06:41:11.982Z,94001
2023-03-08T06:42:28.337Z,94002
2023-03-08T06:43:31.636Z,94003
2023-03-08T06:44:40.083Z,93996
2023-03-08T06:45:49.080Z,93996
2023-03-08T06:46:58.692Z,94000
2023-03-08T06:48:06.385Z,94003
2023-03-08T06:49:16.014Z,94005
2023-03-08T06:50:24.720Z,94003
2023-03-08T06:51:34.382Z,94005
2023-03-08T06:52:44.087Z,94010
2023-03-08T06:53:52.789Z,94009
2023-03-08T06:55:01.490Z,94013
2023-03-08T06:56:11.180Z,94010
2023-03-08T06:57:19.868Z,94009
2023-03-08T06:58:28.535Z,94011
2023-03-08T06:59:38.224Z,94016
2023-03-08T07:00:46.963Z,94010
2023-03-08T07:01:56.631Z,94012
2023-03-08T07:03:06.302Z,94015
2023-03-08T07:04:16.125Z,94010
2023-03-08T07:05:25.753Z,94012
2023-03-08T07:06:34.423Z,94012
2023-03-08T07:07:43.102Z,94011
2023-03-08T07:08:51.775Z,94009
2023-03-08T07:10:01.470Z,94011
2023-03-08T07:11:11.172Z,94014
2023-03-08T07:12:19.802Z,94014
2023-03-08T07:13:28.467Z,94012
2023-03-08T07:14:38.134Z,94014
2023-03-08T07:15:47.869Z,94015
2023-03-08T07:16:57.527Z,94011
2023-03-08T07:18:06.191Z,94010
2023-03-08T07:19:16.872Z,94016
2023-03-08T07:20:26.632Z,94017
2023-03-08T07:21:36.280Z,94017
2023-03-08T07:22:44.944Z,94020
2023-03-08T07:23:54.584Z,94021
2023-03-08T07:25:03.244Z,94019
2023-03-08T07:26:11.946Z,94022
2023-03-08T07:27:20.654Z,94025
2023-03-08T07:28:30.293Z,94028
2023-03-08T07:29:39.945Z,94032
2023-03-08T07:30:48.649Z,94033
2023-03-08T07:31:57.365Z,94035
2023-03-08T07:33:07.024Z,94033
2023-03-08T07:34:15.662Z,94032
2023-03-08T07:35:24.417Z,94045
2023-03-08T07:36:33.112Z,94042
2023-03-08T07:37:41.776Z,94033
2023-03-08T07:38:51.449Z,94025
2023-03-08T07:40:01.125Z,94027
2023-03-08T07:41:09.803Z,94024
2023-03-08T07:42:19.525Z,94021
2023-03-08T07:43:27.200Z,94019
2023-03-08T07:44:36.887Z,94015
2023-03-08T07:45:46.565Z,94026
2023-03-08T07:46:55.233Z,94026
2023-03-08T07:48:04.896Z,94019
2023-03-08T07:49:12.595Z,94014
2023-03-08T07:50:21.273Z,94015
2023-03-08T07:51:30.994Z,94016
2023-03-08T07:52:40.654Z,94015
2023-03-08T07:53:50.292Z,94009
2023-03-08T07:54:58.965Z,94014
2023-03-08T07:56:07.645Z,94006
2023-03-08T07:57:18.365Z,94008
2023-03-08T07:58:27.019Z,94015
2023-03-08T07:59:34.678Z,94023
2023-03-08T08:00:44.388Z,94019
2023-03-08T08:01:52.038Z,94014
2023-03-08T08:03:00.761Z,94006
2023-03-08T08:04:09.418Z,94000
2023-03-08T08:05:18.089Z,94006
2023-03-08T08:06:27.808Z,94004
2023-03-08T08:07:35.473Z,93999
2023-03-08T08:08:45.171Z,93985
2023-03-08T08:09:54.836Z,93985
2023-03-08T08:11:04.529Z,93981
2023-03-08T08:12:14.199Z,93980
2023-03-08T08:13:22.899Z,93980
2023-03-08T08:14:31.611Z,93977
2023-03-08T08:15:41.310Z,93976
2023-03-08T08:16:50.114Z,93973
2023-03-08T08:17:59.778Z,93967
2023-03-08T08:19:09.456Z,93969
2023-03-08T08:20:19.141Z,93963
2023-03-08T08:21:28.818Z,93959
2023-03-08T08:22:37.575Z,93960
2023-03-08T08:23:46.229Z,93959
2023-03-08T08:24:55.981Z,93961
2023-03-08T08:26:04.591Z,93962
2023-03-08T08:27:15.353Z,93955
2023-03-08T08:28:22.941Z,93948
2023-03-08T08:29:31.622Z,93943
2023-03-08T08:30:41.282Z,93930
2023-03-08T08:31:51.072Z,93927
2023-03-08T08:32:59.662Z,93927
2023-03-08T08:34:09.355Z,93929
2023-03-08T08:35:19.062Z,93922
2023-03-08T08:36:29.784Z,93921
2023-03-08T08:37:38.440Z,93920
2023-03-08T08:38:47.166Z,93919
2023-03-08T08:39:56.818Z,93907
2023-03-08T08:41:05.533Z,93903
2023-03-08T08:42:15.186Z,93896
2023-03-08T08:43:24.847Z,93892
2023-03-08T08:44:33.532Z,93880
2023-03-08T08:45:43.261Z,93869
2023-03-08T08:46:52.897Z,93865
2023-03-08T08:48:01.545Z,93858
2023-03-08T08:49:11.197Z,93863
2023-03-08T08:50:20.914Z,93860
2023-03-08T08:51:30.614Z,93858
2023-03-08T08:52:39.273Z,93857
2023-03-08T08:53:47.920Z,93852
2023-03-08T08:54:57.580Z,93849
2023-03-08T08:56:10.114Z,93848
2023-03-08T08:57:15.918Z,93846
2023-03-08T08:58:25.562Z,93844
2023-03-08T08:59:34.229Z,93846
2023-03-08T09:00:42.912Z,93843
2023-03-08T09:01:52.585Z,93843
2023-03-08T09:03:01.230Z,93845
2023-03-08T09:04:11.027Z,93840
2023-03-08T09:05:19.687Z,93840
2023-03-08T09:06:28.450Z,93839
2023-03-08T09:07:39.360Z,93839
2023-03-08T09:08:48.747Z,93840
2023-03-08T09:09:58.437Z,93838
2023-03-08T09:11:08.161Z,93836
2023-03-08T09:12:16.893Z,93833
2023-03-08T09:13:26.626Z,93831
2023-03-08T09:14:36.217Z,93831
2023-03-08T09:15:45.872Z,93832
2023-03-08T09:16:55.665Z,93830
2023-03-08T09:18:04.286Z,93824
2023-03-08T09:19:12.980Z,93823
2023-03-08T09:20:23.353Z,93813
2023-03-08T09:21:30.297Z,93812
2023-03-08T09:22:40.007Z,93814
2023-03-08T09:23:48.664Z,93813
2023-03-08T09:24:57.314Z,93817
2023-03-08T09:26:07.009Z,93813
2023-03-08T09:27:14.691Z,93815
2023-03-08T09:28:23.354Z,93808
2023-03-08T09:29:32.099Z,93801
2023-03-08T09:30:40.673Z,93803
2023-03-08T09:31:50.469Z,93794
2023-03-08T09:33:01.104Z,93794
2023-03-08T09:34:10.782Z,93786
2023-03-08T09:35:19.442Z,93780
2023-03-08T09:36:29.112Z,93778
2023-03-08T09:37:38.857Z,93780
2023-03-08T09:38:48.562Z,93781
2023-03-08T09:39:57.229Z,93778
2023-03-08T09:41:06.946Z,93781
2023-03-08T09:42:15.687Z,93780
2023-03-08T09:43:24.355Z,93785
2023-03-08T09:44:34.029Z,93789
2023-03-08T09:45:43.801Z,93785
2023-03-08T09:46:52.567Z,93785
2023-03-08T09:48:01.327Z,93778
2023-03-08T09:49:10.941Z,93765
2023-03-08T09:50:20.604Z,93768
2023-03-08T09:51:28.260Z,93769
2023-03-08T09:52:36.952Z,93774
2023-03-08T09:53:46.623Z,93773
2023-03-08T09:54:55.385Z,93777
2023-03-08T09:56:04.963Z,93777
2023-03-08T09:57:14.724Z,93772
2023-03-08T09:58:24.358Z,93768
2023-03-08T09:59:35.025Z,93772
2023-03-08T10:00:44.770Z,93775
2023-03-08T10:01:54.406Z,93766
2023-03-08T10:03:04.139Z,93761
2023-03-08T10:04:11.806Z,93766
2023-03-08T10:05:20.393Z,93764
2023-03-08T10:06:29.062Z,93758
2023-03-08T10:07:37.830Z,93755
2023-03-08T10:08:47.479Z,93740
2023-03-08T10:09:56.143Z,93744
2023-03-08T10:11:05.849Z,93751
2023-03-08T10:12:13.841Z,93754
2023-03-08T10:13:23.256Z,93751
2023-03-08T10:14:32.902Z,93752
2023-03-08T10:15:41.564Z,93752
2023-03-08T10:16:51.264Z,93756
2023-03-08T10:17:59.978Z,93755
2023-03-08T10:19:09.617Z,93753
2023-03-08T10:20:19.315Z,93750
2023-03-08T10:21:27.961Z,93747
2023-03-08T10:22:36.665Z,93751
2023-03-08T10:23:46.339Z,93753
2023-03-08T10:24:55.026Z,93753
2023-03-08T10:26:03.670Z,93749
2023-03-08T10:27:12.384Z,93745
2023-03-08T10:28:21.044Z,93742
2023-03-08T10:29:30.740Z,93745
2023-03-08T10:30:40.453Z,93742
2023-03-08T10:31:49.042Z,93746
2023-03-08T10:32:58.760Z,93742
2023-03-08T10:34:07.450Z,93751
2023-03-08T10:35:16.099Z,93758
2023-03-08T10:36:25.775Z,93766
2023-03-08T10:37:35.498Z,93769
2023-03-08T10:38:45.189Z,93771
2023-03-08T10:39:53.844Z,93770
2023-03-08T10:41:03.512Z,93771
2023-03-08T10:42:13.176Z,93773
2023-03-08T10:43:21.861Z,93784
2023-03-08T10:44:31.508Z,93796
2023-03-08T10:45:41.174Z,93794
2023-03-08T10:46:50.858Z,93795
2023-03-08T10:48:00.547Z,93793
2023-03-08T10:49:10.220Z,93802
2023-03-08T10:50:19.945Z,93797
2023-03-08T10:51:30.275Z,93804
2023-03-08T10:52:38.965Z,93797
2023-03-08T10:53:47.641Z,93799
2023-03-08T10:54:57.315Z,93809
2023-03-08T10:56:05.977Z,93802
2023-03-08T10:57:14.602Z,93794
2023-03-08T10:58:22.276Z,93796
2023-03-08T10:59:30.958Z,93795
2023-03-08T11:00:40.637Z,93793
2023-03-08T11:01:48.314Z,93787
2023-03-08T11:02:57.060Z,93785
2023-03-08T11:04:05.747Z,93784
2023-03-08T11:05:15.415Z,93782
2023-03-08T11:06:25.117Z,93788
2023-03-08T11:07:34.857Z,93788
2023-03-08T11:08:44.565Z,93792
2023-03-08T11:09:54.194Z,93788
2023-03-08T11:11:02.886Z,93792
2023-03-08T11:12:12.722Z,93793
2023-03-08T11:13:21.251Z,93796
2023-03-08T11:14:29.994Z,93786
2023-03-08T11:15:39.616Z,93788
2023-03-08T11:16:48.254Z,93784
2023-03-08T11:17:56.938Z,93786
2023-03-08T11:19:06.653Z,93781
2023-03-08T11:20:14.282Z,93789
2023-03-08T11:21:22.955Z,93789
2023-03-08T11:22:32.702Z,93784
2023-03-08T11:23:42.347Z,93780
2023-03-08T11:24:52.015Z,93788
2023-03-08T11:26:00.684Z,93780
2023-03-08T11:27:09.406Z,93784
2023-03-08T11:28:19.101Z,93784
2023-03-08T11:29:26.755Z,93788
2023-03-08T11:30:36.436Z,93784
2023-03-08T11:31:45.108Z,93772
2023-03-08T11:32:54.932Z,93769
2023-03-08T11:34:04.476Z,93779
2023-03-08T11:35:14.133Z,93774
2023-03-08T11:36:23.805Z,93773
2023-03-08T11:37:33.499Z,93775
2023-03-08T11:38:42.225Z,93765
2023-03-08T11:39:51.834Z,93764
2023-03-08T11:41:00.500Z,93756
2023-03-08T11:42:12.393Z,93747
2023-03-08T11:43:19.876Z,93744
2023-03-08T11:44:27.552Z,93743
2023-03-08T11:45:36.233Z,93734
2023-03-08T11:46:45.915Z,93727
2023-03-08T11:47:55.565Z,93714
2023-03-08T11:49:04.342Z,93715
2023-03-08T11:50:12.914Z,93723
2023-03-08T11:51:21.586Z,93714
2023-03-08T11:52:31.264Z,93716
2023-03-08T11:53:40.360Z,93703
2023-03-08T11:54:49.645Z,93700
2023-03-08T11:55:59.284Z,93696
2023-03-08T11:57:07.962Z,93689
2023-03-08T11:58:17.759Z,93688
2023-03-08T11:59:26.436Z,93688
2023-03-08T12:00:35.109Z,93683
2023-03-08T12:01:43.784Z,93676
2023-03-08T12:02:53.458Z,93687
2023-03-08T12:04:04.312Z,93683
2023-03-08T12:05:12.814Z,93675
2023-03-08T12:06:28.550Z,93678
2023-03-08T12:07:32.146Z,93682
2023-03-08T12:08:40.766Z,93679
2023-03-08T12:09:49.476Z,93681
2023-03-08T12:11:00.099Z,93679
2023-03-08T12:12:08.755Z,93672
2023-03-08T12:13:18.453Z,93677
2023-03-08T12:14:27.110Z,93667
2023-03-08T12:15:36.841Z,93673
2023-03-08T12:16:46.517Z,93670
2023-03-08T12:17:56.113Z,93667
2023-03-08T12:19:04.812Z,93666
2023-03-08T12:20:13.472Z,93665
2023-03-08T12:21:22.132Z,93661
2023-03-08T12:22:31.879Z,93664
2023-03-08T12:23:40.607Z,93664
2023-03-08T12:24:50.312Z,93659
2023-03-08T12:25:59.978Z,93666
2023-03-08T12:27:09.674Z,93674
2023-03-08T12:28:19.428Z,93668
2023-03-08T12:29:28.030Z,93679
2023-03-08T12:30:36.724Z,93665
2023-03-08T12:31:46.535Z,93665
2023-03-08T12:32:54.265Z,93672
2023-03-08T12:34:03.910Z,93661
2023-03-08T12:35:14.567Z,93671
2023-03-08T12:36:22.375Z,93669
2023-03-08T12:37:30.973Z,93669
2023-03-08T12:38:40.697Z,93659
2023-03-08T12:39:49.348Z,93658
2023-03-08T12:40:58.980Z,93657
2023-03-08T12:42:08.637Z,93661
2023-03-08T12:43:18.357Z,93660
2023-03-08T12:44:28.006Z,93654
2023-03-08T12:45:36.720Z,93659
2023-03-08T12:47:00.180Z,93661
2023-03-08T12:47:58.024Z,93663
2023-03-08T12:49:07.689Z,93658
2023-03-08T12:50:17.425Z,93661
2023-03-08T12:51:27.075Z,93654
2023-03-08T12:52:35.751Z,93658
2023-03-08T12:53:45.503Z,93653
2023-03-08T12:54:54.174Z,93654
2023-03-08T12:56:03.892Z,93652
2023-03-08T12:57:13.568Z,93659
2023-03-08T12:58:23.311Z,93658
2023-03-08T12:59:33.125Z,93659
2023-03-08T13:00:40.807Z,93668
2023-03-08T13:01:49.470Z,93665
2023-03-08T13:03:00.168Z,93666
2023-03-08T13:04:07.865Z,93666
2023-03-08T13:05:17.550Z,93662
2023-03-08T13:06:26.220Z,93662
2023-03-08T13:07:34.879Z,93659
2023-03-08T13:08:44.601Z,93663
2023-03-08T13:09:53.310Z,93671
2023-03-08T13:11:02.977Z,93670
2023-03-08T13:12:12.641Z,93665
2023-03-08T13:13:37.349Z,93667
2023-03-08T13:14:32.009Z,93669
2023-03-08T13:15:41.675Z,93673
2023-03-08T13:16:50.391Z,93669
2023-03-08T13:18:00.028Z,93671
2023-03-08T13:19:07.765Z,93675
2023-03-08T13:20:16.489Z,93659
2023-03-08T13:21:26.131Z,93665
2023-03-08T13:22:33.767Z,93671
2023-03-08T13:23:43.462Z,93679
2023-03-08T13:24:52.205Z,93675
2023-03-08T13:26:00.893Z,93681
2023-03-08T13:27:10.569Z,93682
2023-03-08T13:28:19.269Z,93671
2023-03-08T13:29:28.887Z,93668
2023-03-08T13:30:38.803Z,93679
2023-03-08T13:31:47.337Z,93669
2023-03-08T13:32:55.977Z,93672
2023-03-08T13:34:04.652Z,93692
2023-03-08T13:35:13.318Z,93678
2023-03-08T13:36:23.010Z,93676
2023-03-08T13:37:30.689Z,93656
2023-03-08T13:38:39.371Z,93664
2023-03-08T13:39:49.091Z,93653
2023-03-08T13:40:57.752Z,93668
2023-03-08T13:42:06.408Z,93667
2023-03-08T13:43:16.085Z,93662
2023-03-08T13:44:24.779Z,93670
2023-03-08T13:45:34.424Z,93694
2023-03-08T13:46:44.100Z,93678
2023-03-08T13:47:53.750Z,93705
2023-03-08T13:49:03.408Z,93692
2023-03-08T13:50:11.090Z,93659
2023-03-08T13:51:19.834Z,93686
2023-03-08T13:52:28.506Z,93673
2023-03-08T13:53:37.192Z,93678
2023-03-08T13:54:46.928Z,93686
2023-03-08T13:55:54.507Z,93678
2023-03-08T13:57:03.202Z,93674
2023-03-08T13:58:12.915Z,93678
2023-03-08T13:59:20.637Z,93657
2023-03-08T14:00:29.347Z,93677
2023-03-08T14:01:39.052Z,93679
2023-03-08T14:02:48.779Z,93701
2023-03-08T14:03:57.372Z,93661
2023-03-08T14:05:07.094Z,93656
2023-03-08T14:06:16.794Z,93639
2023-03-08T14:07:26.454Z,93632
2023-03-08T14:08:35.118Z,93680
2023-03-08T14:09:44.809Z,93668
2023-03-08T14:10:53.471Z,93656
2023-03-08T14:12:03.192Z,93658
2023-03-08T14:13:12.811Z,93667
2023-03-08T14:14:21.509Z,93659
2023-03-08T14:15:31.264Z,93665
2023-03-08T14:16:39.836Z,93658
2023-03-08T14:17:50.456Z,93669
2023-03-08T14:18:58.222Z,93648
2023-03-08T14:20:05.907Z,93639
2023-03-08T14:21:14.524Z,93640
2023-03-08T14:22:36.331Z,93641
2023-03-08T14:23:33.914Z,93631
2023-03-08T14:24:42.548Z,93644
2023-03-08T14:25:51.269Z,93647
2023-03-08T14:26:59.992Z,93651
2023-03-08T14:28:09.659Z,93656
2023-03-08T14:29:18.326Z,93643
2023-03-08T14:30:26.937Z,93636
2023-03-08T14:31:35.784Z,93654
2023-03-08T14:32:45.316Z,93645
2023-03-08T14:33:54.958Z,93685
2023-03-08T14:35:03.685Z,93641
2023-03-08T14:36:12.338Z,93639
2023-03-08T14:37:22.009Z,93642
2023-03-08T14:38:29.659Z,93651
2023-03-08T14:39:39.331Z,93657
2023-03-08T14:40:47.052Z,93643
2023-03-08T14:41:55.704Z,93678
2023-03-08T14:43:05.443Z,93648
2023-03-08T14:44:13.100Z,93640
2023-03-08T14:45:22.817Z,93636
2023-03-08T14:46:32.531Z,93638
2023-03-08T14:47:41.201Z,93642
2023-03-08T14:48:51.061Z,93620
2023-03-08T14:49:57.652Z,93636
2023-03-08T14:51:07.429Z,93640
2023-03-08T14:52:17.041Z,93620
2023-03-08T14:53:25.704Z,93619